Time,TemperatureF,DewpointF,PressureIn,WindDirection,WindDirectionDegrees,WindSpeedMPH,WindSpeedGustMPH,Humidity,HourlyPrecipIn,Conditions,Clouds,dailyrainin,SolarRadiationWatts/m^2,SoftwareType,DateUTC
2013-07-06 00:01:00,60.0,51.0,-100.00,NNE,28,1.0,3.0,71,0.00,,,0.00,0.000000,,2013-07-06 07:01:00,
2013-07-06 00:33:00,58.0,51.0,-100.00,WSW,242,0.0,0.0,78,0.00,,,0.00,0.000000,,2013-07-06 07:33:00,
2013-07-06 00:44:00,58.0,51.0,-100.00,WSW,242,0.0,0.0,78,0.00,,,0.00,0.000000,,2013-07-06 07:44:00,
2013-07-06 00:52:00,58.0,51.0,-100.00,WSW,242,0.0,0.0,78,0.00,,,0.00,0.000000,,2013-07-06 07:52:00,
2013-07-06 01:02:00,58.0,51.0,-100.00,WSW,242,0.0,0.0,78,0.00,,,0.00,0.000000,,2013-07-06 08:02:00,
2013-07-06 01:34:00,57.0,51.0,-100.00,SW,223,1.0,1.0,81,0.00,,,0.00,0.000000,,2013-07-06 08:34:00,
2013-07-06 01:43:00,57.0,51.0,-100.00,SW,223,1.0,1.0,81,0.00,,,0.00,0.000000,,2013-07-06 08:43:00,
2013-07-06 01:54:00,57.0,51.0,-100.00,SW,223,1.0,1.0,81,0.00,,,0.00,0.000000,,2013-07-06 08:54:00,
2013-07-06 02:02:00,57.0,51.0,-100.00,SW,223,1.0,1.0,81,0.00,,,0.00,0.000000,,2013-07-06 09:02:00,
2013-07-06 02:34:00,57.0,53.0,-100.00,NNE,29,1.0,2.0,85,0.00,,,0.00,0.000000,,2013-07-06 09:34:00,
2013-07-06 02:43:00,57.0,53.0,-100.00,NNE,29,1.0,2.0,85,0.00,,,0.00,0.000000,,2013-07-06 09:43:00,
2013-07-06 02:52:00,57.0,53.0,-100.00,NNE,29,1.0,2.0,85,0.00,,,0.00,0.000000,,2013-07-06 09:52:00,
2013-07-06 03:02:00,57.0,53.0,-100.00,NNE,29,1.0,2.0,85,0.00,,,0.00,0.000000,,2013-07-06 10:02:00,
2013-07-06 03:33:00,56.0,52.0,-100.00,SW,236,1.0,2.0,86,0.00,,,0.00,0.000000,,2013-07-06 10:33:00,
2013-07-06 03:43:00,56.0,52.0,-100.00,SW,236,1.0,2.0,86,0.00,,,0.00,0.000000,,2013-07-06 10:43:00,
2013-07-06 03:53:00,56.0,52.0,-100.00,SW,236,1.0,2.0,86,0.00,,,0.00,0.000000,,2013-07-06 10:53:00,
2013-07-06 04:01:00,56.0,52.0,-100.00,SW,236,1.0,2.0,86,0.00,,,0.00,0.000000,,2013-07-06 11:01:00,
2013-07-06 04:33:00,56.0,52.0,-100.00,NNE,22,0.0,0.0,86,0.00,,,0.00,0.000000,,2013-07-06 11:33:00,
2013-07-06 04:43:00,56.0,52.0,-100.00,NNE,22,0.0,0.0,86,0.00,,,0.00,0.000000,,2013-07-06 11:43:00,
2013-07-06 04:53:00,56.0,52.0,-100.00,NNE,22,0.0,0.0,86,0.00,,,0.00,0.000000,,2013-07-06 11:53:00,
2013-07-06 05:01:00,56.0,52.0,-100.00,NNE,22,0.0,0.0,86,0.00,,,0.00,0.000000,,2013-07-06 12:01:00,
2013-07-06 05:33:00,56.0,52.0,-100.00,NW,324,0.0,2.0,86,0.00,,,0.00,0.000000,,2013-07-06 12:33:00,
2013-07-06 05:43:00,56.0,52.0,-100.00,NW,324,0.0,2.0,86,0.00,,,0.00,0.000000,,2013-07-06 12:43:00,
2013-07-06 05:52:00,56.0,52.0,-100.00,NW,324,0.0,2.0,86,0.00,,,0.00,0.000000,,2013-07-06 12:52:00,
2013-07-06 06:01:00,56.0,52.0,-100.00,NW,324,0.0,2.0,86,0.00,,,0.00,0.000000,,2013-07-06 13:01:00,
2013-07-06 06:43:00,56.0,52.0,-100.00,NNE,31,1.0,2.0,87,0.00,,,-99.99,18.000000,,2013-07-06 13:43:00,
2013-07-06 06:52:00,56.0,52.0,-100.00,NNE,31,1.0,2.0,87,0.00,,,-99.99,18.000000,,2013-07-06 13:52:00,
2013-07-06 07:02:00,56.0,52.0,-100.00,NNE,31,1.0,2.0,87,0.00,,,-99.99,18.000000,,2013-07-06 14:02:00,
2013-07-06 07:42:00,66.0,57.0,-100.00,SW,217,3.0,5.0,72,0.00,,,0.00,124.000000,,2013-07-06 14:42:00,
2013-07-06 07:53:00,66.0,57.0,-100.00,SW,217,3.0,5.0,72,0.00,,,0.00,124.000000,,2013-07-06 14:53:00,
2013-07-06 08:02:00,66.0,57.0,-100.00,SW,217,3.0,5.0,72,0.00,,,0.00,124.000000,,2013-07-06 15:02:00,
2013-07-06 08:33:00,71.0,52.0,-100.00,SSW,201,5.0,7.0,51,0.00,,,0.00,347.000000,,2013-07-06 15:33:00,
2013-07-06 08:43:00,71.0,52.0,-100.00,SSW,201,5.0,7.0,51,0.00,,,0.00,347.000000,,2013-07-06 15:43:00,
2013-07-06 08:53:00,71.0,52.0,-100.00,SSW,201,5.0,7.0,51,0.00,,,0.00,347.000000,,2013-07-06 15:53:00,
2013-07-06 09:03:00,71.0,52.0,-100.00,SSW,201,5.0,7.0,51,0.00,,,0.00,347.000000,,2013-07-06 16:03:00,
2013-07-06 09:49:00,76.0,56.0,-100.00,SSW,209,3.0,7.0,50,0.00,,,0.00,588.000000,,2013-07-06 16:49:00,
2013-07-06 10:44:00,77.0,53.0,-100.00,SW,227,5.0,9.0,44,0.00,,,0.00,581.000000,,2013-07-06 17:44:00,
2013-07-06 10:57:00,77.0,53.0,-100.00,SW,227,5.0,9.0,44,0.00,,,0.00,581.000000,,2013-07-06 17:57:00,
2013-07-06 11:04:00,77.0,53.0,-100.00,SW,227,5.0,9.0,44,0.00,,,0.00,581.000000,,2013-07-06 18:04:00,
2013-07-06 12:04:00,80.0,53.0,-100.00,WSW,245,7.0,14.0,40,0.00,,,0.00,852.000000,,2013-07-06 19:04:00,
2013-07-06 12:56:00,82.0,51.0,-100.00,SSW,211,8.0,17.0,34,0.00,,,0.00,962.000000,,2013-07-06 19:56:00,
2013-07-06 13:04:00,82.0,51.0,-100.00,SSW,211,8.0,17.0,34,0.00,,,0.00,962.000000,,2013-07-06 20:04:00,
2013-07-06 13:50:00,81.0,47.0,-100.00,SSE,156,6.0,19.0,31,0.00,,,0.00,888.000000,,2013-07-06 20:50:00,
2013-07-06 14:04:00,81.0,47.0,-100.00,SSE,156,6.0,19.0,31,0.00,,,0.00,888.000000,,2013-07-06 21:04:00,
2013-07-06 16:04:00,61.0,56.0,-100.00,ENE,65,7.0,17.0,83,0.05,,,0.30,65.000000,,2013-07-06 23:04:00,
2013-07-06 16:50:00,61.0,58.0,-100.00,North,356,5.0,11.0,90,0.12,,,0.42,125.000000,,2013-07-06 23:50:00,
2013-07-06 16:57:00,61.0,58.0,-100.00,North,356,5.0,11.0,90,0.12,,,0.42,125.000000,,2013-07-06 23:57:00,
2013-07-06 17:04:00,61.0,58.0,-100.00,North,356,5.0,11.0,90,0.12,,,0.42,125.000000,,2013-07-07 00:04:00,
2013-07-06 17:58:00,61.0,58.0,-100.00,NE,40,2.0,10.0,89,0.00,,,0.42,57.000000,,2013-07-07 00:58:00,
2013-07-06 18:04:00,61.0,58.0,-100.00,NE,40,2.0,10.0,89,0.00,,,0.42,57.000000,,2013-07-07 01:04:00,
2013-07-06 18:56:00,63.0,59.0,-100.00,NNW,335,3.0,6.0,88,0.00,,,0.42,127.000000,,2013-07-07 01:56:00,
2013-07-06 19:03:00,63.0,59.0,-100.00,NNW,335,3.0,6.0,88,0.00,,,0.42,127.000000,,2013-07-07 02:03:00,
2013-07-06 19:42:00,65.0,56.0,-100.00,North,1,1.0,5.0,73,0.00,,,0.42,157.000000,,2013-07-07 02:42:00,
2013-07-06 19:51:00,65.0,56.0,-100.00,North,1,1.0,5.0,73,0.00,,,0.42,157.000000,,2013-07-07 02:51:00,
2013-07-06 19:57:00,65.0,56.0,-100.00,North,1,1.0,5.0,73,0.00,,,0.42,157.000000,,2013-07-07 02:57:00,
2013-07-06 20:41:00,60.0,58.0,-100.00,NE,44,2.0,3.0,93,0.00,,,0.42,18.000000,,2013-07-07 03:41:00,
2013-07-06 21:00:00,60.0,58.0,-100.00,NE,44,2.0,3.0,93,0.00,,,0.42,18.000000,,2013-07-07 04:00:00,
2013-07-06 21:01:00,60.0,58.0,-100.00,NE,44,2.0,3.0,93,0.00,,,0.42,18.000000,,2013-07-07 04:01:00,
2013-07-06 21:31:00,57.0,56.0,-100.00,NNE,28,0.0,2.0,98,0.00,,,0.42,0.000000,,2013-07-07 04:31:00,
2013-07-06 21:41:00,57.0,56.0,-100.00,NNE,28,0.0,2.0,98,0.00,,,0.42,0.000000,,2013-07-07 04:41:00,
2013-07-06 21:51:00,57.0,56.0,-100.00,NNE,28,0.0,2.0,98,0.00,,,0.42,0.000000,,2013-07-07 04:51:00,
2013-07-06 22:01:00,57.0,56.0,-100.00,NNE,28,0.0,2.0,98,0.00,,,0.42,0.000000,,2013-07-07 05:01:00,
2013-07-06 22:31:00,56.0,56.0,-100.00,NNE,28,1.0,3.0,100,0.00,,,0.42,0.000000,,2013-07-07 05:31:00,
2013-07-06 22:41:00,56.0,56.0,-100.00,NNE,28,1.0,3.0,100,0.00,,,0.42,0.000000,,2013-07-07 05:41:00,
2013-07-06 22:51:00,56.0,56.0,-100.00,NNE,28,1.0,3.0,100,0.00,,,0.42,0.000000,,2013-07-07 05:51:00,
2013-07-06 23:01:00,56.0,56.0,-100.00,NNE,28,1.0,3.0,100,0.00,,,0.42,0.000000,,2013-07-07 06:01:00,
2013-07-06 23:32:00,54.0,54.0,-100.00,NNE,28,2.0,4.0,100,0.00,,,0.42,0.000000,,2013-07-07 06:32:00,
2013-07-06 23:43:00,54.0,54.0,-100.00,NNE,28,2.0,4.0,100,0.00,,,0.42,0.000000,,2013-07-07 06:43:00,
2013-07-06 23:52:00,54.0,54.0,-100.00,NNE,28,2.0,4.0,100,0.00,,,0.42,0.000000,,2013-07-07 06:52:00,